EDT,Max TemperatureF,Mean TemperatureF,Min TemperatureF,Max Dew PointF,MeanDew PointF,Min DewpointF,Max Humidity, Mean Humidity, Min Humidity, Max Sea Level PressureIn, Mean Sea Level PressureIn, Min Sea Level PressureIn, Max VisibilityMiles, Mean VisibilityMiles, Min VisibilityMiles, Max Wind SpeedMPH, Mean Wind SpeedMPH, Max Gust SpeedMPH,PrecipitationIn, CloudCover, Events, WindDirDegrees
2013-9-1,89,80,71,77,73,70,100,87,52,29.90,29.87,29.81,10,10,7,10,2,,0.00,1,,216
2013-9-2,89,81,73,78,75,73,100,91,59,29.85,29.81,29.77,10,10,7,9,1,,0.00,4,,232
2013-9-3,86,77,67,76,70,59,100,84,43,29.98,29.83,29.77,10,9,4,15,2,,0.00,1,,339
2013-9-4,80,69,58,63,59,55,98,73,42,30.11,30.06,29.99,10,10,10,12,1,,0.00,0,,293
2013-9-5,86,74,63,68,63,53,100,79,45,30.16,30.08,30.03,10,10,10,12,2,17,0.00,2,,333
2013-9-6,77,66,55,56,52,48,92,71,44,30.28,30.22,30.17,10,10,10,12,2,17,0.00,1,,31
2013-9-7,82,68,53,63,57,52,100,82,39,30.19,30.12,29.98,10,10,10,8,1,,0.00,1,,270
2013-9-8,87,76,66,68,65,60,100,82,48,30.08,29.96,29.91,10,10,10,9,1,,0.00,2,Rain,329
2013-9-9,80,68,57,68,57,50,100,72,39,30.23,30.17,30.09,10,10,10,9,2,,0.00,4,,104
2013-9-10,89,78,67,75,71,67,100,89,59,30.23,30.20,30.14,10,8,5,12,3,17,0.00,3,,208
2013-9-11,93,82,72,76,74,70,100,86,49,30.19,30.15,30.07,10,9,6,13,3,23,0.00,0,,216
2013-9-12,91,80,69,76,72,66,100,87,43,30.06,29.95,29.78,10,9,1,15,6,36,0.00,2,Rain-Thunderstorm,218
2013-9-13,77,71,65,72,65,54,100,85,44,29.93,29.78,29.73,10,9,5,16,4,23,0.00,5,,326
2013-9-14,69,60,52,55,52,48,97,74,46,30.21,30.05,29.94,10,10,10,12,4,20,0.00,3,,356
2013-9-15,77,62,48,59,52,48,100,84,44,30.28,30.22,30.15,10,10,10,8,1,16,0.00,1,,221
2013-9-16,73,65,57,65,61,54,100,87,57,30.25,30.14,30.09,10,10,10,9,2,18,0.00,4,Rain,285
2013-9-17,68,58,48,53,47,39,87,73,35,30.44,30.36,30.26,10,10,10,14,6,16,0.00,0,,36
2013-9-18,71,58,45,55,49,45,100,85,43,30.40,30.33,30.25,10,10,5,7,1,,0.00,1,,233
2013-9-19,75,63,51,57,54,50,100,84,41,30.25,30.20,30.13,10,10,10,7,1,,0.00,1,,240
2013-9-20,80,67,54,64,58,54,100,85,51,30.14,30.10,30.02,10,10,10,8,1,,0.00,1,,217
2013-9-21,80,68,57,72,63,57,100,91,48,30.04,29.91,29.74,10,9,3,17,3,26,0.32,4,Rain,214
2013-9-22,73,66,57,68,60,50,100,86,44,29.96,29.83,29.75,10,10,4,13,5,21,0.08,4,Rain,343
2013-9-23,66,58,51,52,48,43,99,74,46,30.11,30.05,29.96,10,10,10,13,2,18,0.00,2,,3
2013-9-24,71,58,46,54,49,41,100,86,40,30.13,30.08,29.98,10,10,10,12,1,17,0.00,0,,348
2013-9-25,75,62,50,55,53,48,100,86,41,30.01,29.97,29.92,10,10,7,8,1,,0.00,2,,340
2013-9-26,75,65,55,64,56,52,100,87,44,30.11,30.01,29.96,10,10,7,10,1,,0.00,2,,57
2013-9-27,73,64,55,64,57,54,100,89,50,30.28,30.19,30.11,10,10,10,9,1,,0.00,4,,95
2013-9-28,73,63,53,63,55,52,100,89,47,30.33,30.28,30.25,10,10,10,12,2,20,0.00,2,,68
2013-9-29,75,64,53,64,54,50,100,86,41,30.25,30.18,30.11,10,10,10,9,1,,0.00,2,,67
2013-9-30,75,62,50,57,52,48,100,85,41,30.13,30.09,30.04,10,10,10,9,0,,0.00,1,,7